• Join FlightAware (Why Join?)
  • Login
  • US Flag 
06:28PM EDT


 

Airport Tracker/Info


-or-


 

Live Flight TrackerFlight Track Log ✈ GJS3657 ✈ 23-Jun-2013 ✈ KDAY - KORD

Flight Track Log - Related Links

Times and Time Zones

All times are in EDT time to prevent confusion due to time zone crossing. See the GJS3657 flight status page for this flight to view local times or setup timezone preferences in your user account.

Time Position Orientation Groundspeed Altitude Reporting Facility
EDT Latitude Longitude Course Direction KTS MPH feet Rate Location/Type
04:58PM 39.9011 -84.2364 323° Northwest 148 170 1,400  Level Indianapolis Center
04:58PM 39.8942 -84.2736 256° West 159 183 2,700 1,620 Climbing Indianapolis Center
04:59PM 39.8897 -84.3167 262° West 180 207 3,600 1,800 Climbing Indianapolis Center
05:00PM 39.9175 -84.3967 294° West 242 278 5,700 2,640 Climbing Indianapolis Center
05:01PM 40.1789 -84.4788 323° Northwest  Level FlightAware Approximate
05:01PM 39.9897 -84.4450 333° Northwest 283 326 9,100  Level Indianapolis Center
05:02PM 40.2478 -84.5477 323° Northwest  Level FlightAware Approximate
05:02PM 40.0600 -84.4978 330° Northwest 287 330 10,900  Level Indianapolis Center
05:03PM 40.3168 -84.6167 323° Northwest  Level FlightAware Approximate
05:03PM 40.1394 -84.5619 328° Northwest 332 382 10,900  Level Indianapolis Center
05:04PM 40.2289 -84.6253 332° Northwest 359 413 12,300 1,860 Climbing Indianapolis Center
05:05PM 40.3139 -84.6903 330° Northwest 353 406 14,800 2,220 Climbing Indianapolis Center
05:06PM 40.4186 -84.7708 330° Northwest 369 425 16,900 1,800 Climbing Indianapolis Center
05:07PM 40.5158 -84.8397 332° Northwest 388 447 18,600 1,500 Climbing Indianapolis Center
05:08PM 40.6047 -84.9067 330° Northwest 403 464 20,100 1,500 Climbing Indianapolis Center
05:09PM 40.6497 -84.9394 331° Northwest 404 465 20,900 1,200 Climbing Chicago Center
05:10PM 40.7356 -85.0378 319° Northwest 426 490 22,000 480 Climbing Chicago Center
05:11PM 40.8014 -85.1986 298° West 419 482 22,000  Level Chicago Center
05:12PM 40.8497 -85.3222 297° West 395 455 22,000  Level Chicago Center
05:13PM 40.8964 -85.4408 298° West 372 428 22,000  Level Chicago Center
05:14PM 40.9425 -85.5592 297° West 364 419 22,000  Level Chicago Center
05:15PM 40.9931 -85.6861 298° West 383 441 22,000  Level Chicago Center
05:16PM 41.0442 -85.8189 297° West 399 459 22,000  Level Chicago Center
05:17PM 41.1103 -85.9908 297° West 430 495 22,000  Level Chicago Center
05:18PM 41.1653 -86.1361 297° West 439 505 22,000  Level Chicago Center
05:19PM 41.2214 -86.2833 297° West 443 510 22,000  Level Chicago Center
05:20PM 41.2767 -86.4286 297° West 441 507 22,000 -360 Level Chicago Center
05:21PM 41.3322 -86.5756 297° West 444 511 21,300 -1,320 Descending Chicago Center
05:22PM 41.3853 -86.7192 296° West 430 495 19,300 -1,920 Descending Chicago Center
05:23PM 41.4381 -86.8581 297° West 424 488 17,400 -1,920 Descending Chicago Center
05:24PM 41.4964 -87.0156 296° West 403 464 15,400 -1,920 Descending Chicago Center
05:25PM 41.5478 -87.1333 300° West 377 434 13,500 -1,680 Descending Chicago Center
05:26PM 41.6181 -87.2361 312° West 375 432 12,000 -1,020 Descending Chicago Center
05:27PM 41.6831 -87.3253 314° West 349 402 11,400 -900 Descending Chicago Center
05:28PM 41.7611 -87.4028 323° Northwest 303 349 10,200 -1,080 Descending Chicago Center
05:29PM 41.8311 -87.4506 333° Northwest 288 331 9,200 -720 Descending Chicago Center
05:30PM 41.8961 -87.4983 331° Northwest 269 310 8,800 -600 Descending Chicago Center
05:31PM 41.9414 -87.5314 331° Northwest 198 228 8,000 -540 Descending Chicago Center
05:33PM 41.9825 -87.5750 322° Northwest 188 216 7,700 -1,260 Descending Chicago Center
05:34PM 42.0314 -87.6272 322° Northwest 188 216 5,500 -2,040 Descending Chicago Center
05:35PM 42.0675 -87.6772 314° West 188 216 3,500 -1,500 Descending Chicago Center
05:36PM 42.0694 -87.7458 272° West 185 213 2,500 -540 Descending Chicago Center
05:37PM 42.0431 -87.7978 236° Southwest 178 205 2,500  Level Chicago Center